Time;durP1;ratioP1;P1;durP2;ratioP2;P2;SDS_P1;SDS_P2;PMS_P1;PMS_P2;Temp;Humidity;BMP_temperature;BMP_pressure;BME280_temperature;BME280_humidity;BME280_pressure;Samples;Min_cycle;Max_cycle;Signal;HPM_P1;HPM_P2
2021/06/26 00:00:07;;;;;;;164.50;16.83;;;20.90;76.60;;;;;;5002343;28;20066;-60
2021/06/26 00:02:32;;;;;;;168.32;16.42;;;20.90;76.60;;;;;;4984374;28;20521;-61
2021/06/26 00:04:58;;;;;;;135.40;14.40;;;20.90;76.70;;;;;;4989603;28;20105;-60
2021/06/26 00:07:23;;;;;;;127.80;14.85;;;20.90;76.80;;;;;;5003083;28;20369;-64
2021/06/26 00:09:49;;;;;;;129.65;14.63;;;20.80;76.80;;;;;;5003907;28;20088;-61
2021/06/26 00:12:14;;;;;;;111.10;14.65;;;20.80;76.80;;;;;;5005257;28;20068;-60
2021/06/26 00:14:40;;;;;;;116.45;13.40;;;20.80;76.90;;;;;;4986886;28;20045;-61
2021/06/26 00:17:05;;;;;;;120.93;15.07;;;20.80;76.90;;;;;;5003188;28;20540;-60
2021/06/26 00:19:31;;;;;;;111.38;13.13;;;20.80;77.00;;;;;;5006580;28;20014;-60
2021/06/26 00:21:56;;;;;;;88.68;11.30;;;20.70;77.00;;;;;;5022909;28;20034;-60
2021/06/26 00:24:22;;;;;;;95.68;12.00;;;20.70;77.00;;;;;;5003131;28;20022;-60
2021/06/26 00:26:49;;;;;;;106.57;12.80;;;20.70;77.10;;;;;;4983079;28;20049;-61
2021/06/26 00:29:15;;;;;;;81.38;11.60;;;20.70;77.20;;;;;;4986309;28;20026;-60
2021/06/26 00:31:41;;;;;;;96.57;12.27;;;20.70;77.20;;;;;;4989752;28;20739;-60
2021/06/26 00:34:06;;;;;;;85.53;11.20;;;20.70;77.30;;;;;;5000736;28;20052;-60
2021/06/26 00:36:32;;;;;;;100.03;12.13;;;20.60;77.40;;;;;;5006431;28;20072;-60
2021/06/26 00:38:57;;;;;;;95.38;11.43;;;20.60;77.40;;;;;;5002566;28;20132;-61
2021/06/26 00:41:23;;;;;;;86.43;12.48;;;20.60;77.40;;;;;;5004648;28;20080;-61
2021/06/26 00:43:48;;;;;;;89.47;12.27;;;20.60;77.50;;;;;;5002842;28;20439;-61
2021/06/26 00:46:14;;;;;;;69.95;10.68;;;20.60;77.50;;;;;;4995336;28;20481;-61
2021/06/26 00:48:40;;;;;;;67.68;10.32;;;20.60;77.50;;;;;;4988729;28;20022;-61
2021/06/26 00:51:05;;;;;;;70.07;10.63;;;20.60;77.60;;;;;;5022550;28;20573;-61
2021/06/26 00:53:31;;;;;;;67.93;10.70;;;20.60;77.70;;;;;;5004152;28;20025;-61
2021/06/26 00:55:56;;;;;;;67.18;11.40;;;20.50;77.60;;;;;;5005403;28;20529;-61
2021/06/26 00:58:23;;;;;;;67.45;10.27;;;20.50;77.70;;;;;;4987814;28;20030;-61
2021/06/26 01:00:49;;;;;;;58.53;10.63;;;20.50;77.70;;;;;;4980941;28;20045;-62
2021/06/26 01:03:14;;;;;;;57.95;10.10;;;20.50;77.80;;;;;;5003028;28;20497;-61
2021/06/26 01:05:40;;;;;;;70.20;10.27;;;20.50;77.80;;;;;;5004738;28;20041;-61
2021/06/26 01:08:06;;;;;;;62.53;10.25;;;20.40;77.80;;;;;;4999750;28;20032;-62
2021/06/26 01:10:31;;;;;;;61.67;10.05;;;20.40;77.90;;;;;;5001254;28;20090;-61
2021/06/26 01:12:57;;;;;;;68.70;9.88;;;20.40;78.00;;;;;;4985105;28;20060;-61
2021/06/26 01:15:22;;;;;;;44.00;9.10;;;20.40;78.00;;;;;;5004378;28;20037;-61
2021/06/26 01:17:48;;;;;;;45.45;8.85;;;20.30;78.00;;;;;;4983275;28;20057;-60
2021/06/26 01:20:14;;;;;;;45.20;9.40;;;20.30;78.10;;;;;;5002109;28;20367;-61
2021/06/26 01:22:50;;;;;;;43.53;9.25;;;20.30;78.10;;;;;;5002212;28;20100;-61
2021/06/26 01:25:18;;;;;;;54.00;8.88;;;20.30;78.10;;;;;;4999596;28;20030;-62
2021/06/26 01:27:43;;;;;;;47.75;9.13;;;20.20;78.10;;;;;;5000633;28;20033;-60
2021/06/26 01:30:10;;;;;;;41.08;9.00;;;20.30;78.10;;;;;;4967182;28;20082;-61
2021/06/26 01:32:36;;;;;;;39.60;8.35;;;20.30;78.10;;;;;;5000188;28;20029;-61
2021/06/26 01:35:02;;;;;;;37.20;8.27;;;20.20;78.10;;;;;;4986062;28;20030;-59
2021/06/26 01:37:27;;;;;;;39.28;8.80;;;20.20;78.10;;;;;;4999820;28;20202;-60
2021/06/26 01:39:53;;;;;;;41.85;9.27;;;20.20;78.20;;;;;;4980261;28;20513;-60
2021/06/26 01:42:18;;;;;;;44.35;8.95;;;20.20;78.20;;;;;;4987398;28;21089;-60
2021/06/26 01:44:44;;;;;;;34.50;7.60;;;20.20;78.20;;;;;;4980999;28;20092;-60
2021/06/26 01:47:10;;;;;;;33.80;8.48;;;20.20;78.90;;;;;;5002884;28;20026;-60
2021/06/26 01:49:37;;;;;;;39.95;8.48;;;20.10;78.20;;;;;;4983489;28;20061;-60
2021/06/26 01:52:03;;;;;;;31.60;8.07;;;20.10;78.30;;;;;;4983841;28;20108;-60
2021/06/26 01:54:30;;;;;;;24.80;7.63;;;20.10;78.30;;;;;;5012388;28;20568;-60
2021/06/26 01:56:55;;;;;;;32.63;7.47;;;20.10;78.40;;;;;;4995687;28;20034;-59
2021/06/26 01:59:21;;;;;;;36.65;7.70;;;20.10;78.50;;;;;;4970181;28;20036;-60
2021/06/26 02:01:46;;;;;;;31.52;7.05;;;20.10;78.50;;;;;;4986592;28;20093;-60
2021/06/26 02:04:12;;;;;;;33.85;7.50;;;20.00;78.60;;;;;;5001058;28;20034;-60
2021/06/26 02:06:37;;;;;;;24.48;6.90;;;20.00;78.60;;;;;;4995376;28;20112;-59
2021/06/26 02:09:03;;;;;;;37.95;9.60;;;20.00;78.70;;;;;;4998875;28;20449;-60
2021/06/26 02:11:29;;;;;;;24.80;7.78;;;20.00;78.70;;;;;;5001277;28;20034;-59
2021/06/26 02:13:54;;;;;;;29.15;7.88;;;19.90;78.70;;;;;;4988002;28;20422;-61
2021/06/26 02:16:20;;;;;;;31.02;7.70;;;19.90;78.80;;;;;;5013368;28;20030;-60
2021/06/26 02:18:45;;;;;;;33.85;7.63;;;19.90;78.70;;;;;;5001541;28;20041;-60
2021/06/26 02:21:11;;;;;;;32.28;7.40;;;19.90;78.80;;;;;;4999590;28;20037;-59
2021/06/26 02:23:39;;;;;;;24.48;7.63;;;19.90;78.70;;;;;;5014428;28;20038;-60
2021/06/26 02:26:05;;;;;;;29.38;7.35;;;19.90;78.80;;;;;;4968111;28;20072;-60
2021/06/26 02:28:30;;;;;;;23.52;7.60;;;19.90;78.70;;;;;;4984689;28;20125;-59
2021/06/26 02:30:56;;;;;;;26.95;7.15;;;19.90;78.70;;;;;;5013927;28;20037;-60
2021/06/26 02:33:21;;;;;;;20.65;7.78;;;19.90;78.70;;;;;;4997247;28;20108;-61
2021/06/26 02:35:47;;;;;;;24.83;6.85;;;19.90;78.80;;;;;;4983123;28;20084;-60
2021/06/26 02:38:12;;;;;;;26.40;7.28;;;19.90;78.70;;;;;;4984080;28;20034;-61
2021/06/26 02:40:38;;;;;;;21.80;6.95;;;19.90;78.70;;;;;;5003353;28;20022;-60
2021/06/26 02:43:03;;;;;;;20.65;6.25;;;19.90;78.70;;;;;;4981541;28;20034;-60
2021/06/26 02:45:29;;;;;;;22.70;6.78;;;19.80;78.70;;;;;;4981528;28;20049;-60
2021/06/26 02:47:54;;;;;;;16.08;6.15;;;19.80;78.90;;;;;;4997352;28;20069;-59
2021/06/26 02:50:20;;;;;;;19.10;6.90;;;19.90;79.00;;;;;;4985204;28;20488;-60
2021/06/26 02:52:46;;;;;;;25.80;6.25;;;19.70;78.80;;;;;;4988037;28;20049;-60
2021/06/26 02:55:12;;;;;;;22.00;6.60;;;19.80;78.90;;;;;;5001736;28;20277;-61
2021/06/26 02:57:37;;;;;;;16.85;6.40;;;19.80;79.00;;;;;;4985107;28;20490;-60
2021/06/26 03:00:07;;;;;;;18.88;5.82;;;19.80;78.90;;;;;;4983783;28;20501;-60
2021/06/26 03:02:33;;;;;;;16.90;5.50;;;19.80;79.00;;;;;;4999900;28;20042;-60
2021/06/26 03:04:58;;;;;;;11.90;5.53;;;19.80;79.10;;;;;;4986647;28;20029;-61
2021/06/26 03:07:24;;;;;;;18.90;5.60;;;19.70;79.00;;;;;;5005012;28;20061;-61
2021/06/26 03:09:49;;;;;;;17.42;5.93;;;19.70;79.10;;;;;;5002174;28;20061;-60
2021/06/26 03:12:15;;;;;;;14.63;5.57;;;19.70;79.20;;;;;;5000698;28;20072;-59
2021/06/26 03:14:40;;;;;;;14.77;5.68;;;19.70;79.20;;;;;;4972165;28;20580;-60
2021/06/26 03:17:06;;;;;;;14.57;5.53;;;19.70;79.40;;;;;;5003604;28;20418;-60
2021/06/26 03:19:31;;;;;;;16.98;5.97;;;19.70;79.30;;;;;;5002099;28;20046;-60
2021/06/26 03:21:57;;;;;;;14.18;5.50;;;19.70;79.20;;;;;;5002128;28;20037;-61
2021/06/26 03:24:22;;;;;;;15.43;6.07;;;19.70;79.30;;;;;;5002638;28;20058;-59
2021/06/26 03:26:49;;;;;;;11.10;5.90;;;19.60;79.30;;;;;;5002838;28;20127;-60
2021/06/26 03:29:14;;;;;;;14.35;6.22;;;19.60;79.40;;;;;;4984962;28;20108;-60
2021/06/26 03:31:40;;;;;;;17.48;6.88;;;19.70;79.30;;;;;;5000672;28;20088;-59
2021/06/26 03:34:06;;;;;;;15.07;5.85;;;19.60;79.30;;;;;;5003616;28;20042;-60
2021/06/26 03:36:31;;;;;;;12.93;5.80;;;19.60;79.40;;;;;;5004919;28;20045;-60
2021/06/26 03:38:57;;;;;;;17.92;6.32;;;19.60;79.40;;;;;;4999830;28;20037;-60
2021/06/26 03:41:26;;;;;;;14.45;6.70;;;19.60;79.50;;;;;;4986801;28;20460;-60
2021/06/26 03:43:59;;;;;;;16.60;6.50;;;19.60;79.50;;;;;;5001264;28;20629;-59
2021/06/26 03:46:25;;;;;;;13.68;6.18;;;19.50;79.50;;;;;;4973491;28;20026;-59
2021/06/26 03:48:51;;;;;;;13.48;5.95;;;19.60;79.60;;;;;;5002808;28;20527;-60
2021/06/26 03:51:17;;;;;;;17.15;5.57;;;19.50;79.70;;;;;;4989772;28;20378;-60
2021/06/26 03:53:42;;;;;;;18.75;6.50;;;19.50;79.80;;;;;;5021428;28;20049;-59
2021/06/26 03:56:08;;;;;;;14.80;6.55;;;19.50;79.80;;;;;;5004279;28;20053;-60
2021/06/26 03:58:33;;;;;;;11.70;5.80;;;19.50;79.80;;;;;;5002585;28;20084;-60
2021/06/26 04:00:59;;;;;;;14.07;5.60;;;19.50;79.90;;;;;;4987394;28;20137;-61
2021/06/26 04:03:24;;;;;;;17.85;5.97;;;19.40;79.80;;;;;;5004247;28;20117;-60
2021/06/26 04:05:50;;;;;;;17.77;6.13;;;19.40;79.80;;;;;;5007686;28;20080;-60
2021/06/26 04:08:15;;;;;;;14.00;5.95;;;19.40;79.90;;;;;;5020370;28;20037;-61
2021/06/26 04:10:42;;;;;;;12.52;5.82;;;19.40;79.90;;;;;;4981085;28;20503;-60
2021/06/26 04:13:08;;;;;;;10.88;5.13;;;19.40;79.90;;;;;;4982937;28;20044;-61
2021/06/26 04:15:33;;;;;;;11.10;5.50;;;19.40;79.90;;;;;;4970667;28;20029;-61
2021/06/26 04:17:59;;;;;;;15.73;5.60;;;19.40;80.00;;;;;;4985957;28;20037;-60
2021/06/26 04:20:25;;;;;;;10.52;5.35;;;19.20;79.90;;;;;;4982911;28;20047;-60
2021/06/26 04:22:50;;;;;;;12.60;5.32;;;19.40;80.00;;;;;;4998213;28;20520;-60
2021/06/26 04:25:16;;;;;;;10.25;5.25;;;19.40;80.00;;;;;;4984053;28;20026;-61
2021/06/26 04:27:43;;;;;;;9.32;5.03;;;19.40;80.00;;;;;;4984038;28;20025;-60
2021/06/26 04:30:09;;;;;;;10.85;5.18;;;19.30;80.00;;;;;;4968589;28;20383;-61
2021/06/26 04:32:36;;;;;;;11.07;4.78;;;19.30;80.10;;;;;;5002792;28;20038;-60
2021/06/26 04:35:03;;;;;;;13.48;5.15;;;19.30;80.80;;;;;;5015946;28;20050;-60
2021/06/26 04:37:29;;;;;;;11.07;4.95;;;19.30;80.20;;;;;;4984143;28;20030;-60
2021/06/26 04:39:54;;;;;;;10.85;5.05;;;19.30;80.20;;;;;;5001296;28;20042;-59
2021/06/26 04:42:20;;;;;;;13.43;5.10;;;19.30;80.20;;;;;;5002752;28;20054;-60
2021/06/26 04:44:45;;;;;;;6.93;4.70;;;19.30;80.10;;;;;;5002750;28;20462;-60
2021/06/26 04:47:11;;;;;;;10.23;4.90;;;19.30;80.20;;;;;;5021217;28;20473;-61
2021/06/26 04:49:36;;;;;;;9.60;4.68;;;19.30;80.10;;;;;;5004889;28;20061;-60
2021/06/26 04:52:03;;;;;;;12.18;4.80;;;19.30;80.10;;;;;;4999732;28;20053;-60
2021/06/26 04:54:29;;;;;;;11.23;4.53;;;19.30;80.10;;;;;;4984161;28;20145;-60
2021/06/26 04:56:54;;;;;;;7.68;4.53;;;19.30;80.10;;;;;;5001651;28;20029;-60
2021/06/26 04:59:20;;;;;;;9.38;4.40;;;19.30;80.00;;;;;;5004650;28;20033;-59
2021/06/26 05:01:45;;;;;;;11.88;5.55;;;19.30;80.10;;;;;;5005468;28;20112;-60
2021/06/26 05:04:11;;;;;;;7.85;4.65;;;19.30;80.20;;;;;;5003988;28;20042;-61
2021/06/26 05:06:36;;;;;;;11.32;4.93;;;19.20;80.30;;;;;;5005591;28;20026;-60
2021/06/26 05:09:02;;;;;;;14.93;5.65;;;19.30;80.30;;;;;;5001131;28;20026;-60
2021/06/26 05:11:27;;;;;;;8.30;4.38;;;19.20;80.30;;;;;;5005762;28;20030;-61
2021/06/26 05:13:53;;;;;;;8.82;5.10;;;19.20;80.40;;;;;;4969726;28;20080;-60
2021/06/26 05:16:18;;;;;;;9.75;4.57;;;19.30;80.40;;;;;;4983214;28;20022;-60
2021/06/26 05:18:44;;;;;;;12.05;4.72;;;19.20;80.30;;;;;;5018375;28;20513;-59
2021/06/26 05:21:09;;;;;;;6.97;4.50;;;19.20;80.20;;;;;;5003922;28;20060;-59
2021/06/26 05:23:35;;;;;;;9.25;4.68;;;19.20;80.30;;;;;;5001159;28;20030;-60
2021/06/26 05:26:00;;;;;;;12.68;4.82;;;19.20;80.40;;;;;;5005430;28;20044;-60
2021/06/26 05:28:26;;;;;;;13.07;5.72;;;19.20;80.50;;;;;;5002949;28;20398;-60
2021/06/26 05:30:51;;;;;;;14.02;6.25;;;19.30;80.70;;;;;;5004469;28;20022;-60
2021/06/26 05:33:17;;;;;;;10.55;5.43;;;19.20;80.60;;;;;;4988190;28;20026;-61
2021/06/26 05:35:43;;;;;;;11.57;5.80;;;19.30;80.80;;;;;;4988077;28;20037;-60
2021/06/26 05:38:09;;;;;;;9.20;5.40;;;19.20;80.80;;;;;;5003633;28;20161;-61
2021/06/26 05:40:34;;;;;;;6.68;5.07;;;19.20;80.70;;;;;;4986798;28;20025;-59
2021/06/26 05:43:00;;;;;;;17.27;5.65;;;19.20;80.80;;;;;;5005617;28;20038;-60
2021/06/26 05:45:25;;;;;;;10.02;5.10;;;19.20;80.90;;;;;;4986590;28;20104;-60
2021/06/26 05:47:51;;;;;;;9.77;5.03;;;19.20;81.10;;;;;;5005506;28;20087;-61
2021/06/26 05:50:16;;;;;;;9.93;5.35;;;19.20;81.30;;;;;;5004556;28;20120;-60
2021/06/26 05:52:49;;;;;;;10.75;4.88;;;19.30;81.30;;;;;;5001058;28;20026;-61
2021/06/26 05:55:15;;;;;;;9.18;4.90;;;19.20;81.10;;;;;;5019811;28;20030;-60
2021/06/26 05:57:41;;;;;;;11.23;5.20;;;19.20;81.20;;;;;;5002945;28;20044;-60
2021/06/26 06:00:08;;;;;;;12.48;5.07;;;19.20;81.30;;;;;;4979511;28;20032;-60
2021/06/26 06:02:33;;;;;;;12.82;4.82;;;19.20;81.30;;;;;;4984177;28;20037;-60
2021/06/26 06:04:59;;;;;;;10.52;4.90;;;19.20;81.30;;;;;;5001439;28;20034;-61
2021/06/26 06:07:24;;;;;;;12.73;5.35;;;19.20;81.50;;;;;;5002014;28;20334;-60
2021/06/26 06:09:50;;;;;;;6.72;5.07;;;19.20;81.60;;;;;;5004195;28;20355;-60
2021/06/26 06:12:15;;;;;;;11.70;4.97;;;19.20;81.70;;;;;;5001252;28;20512;-60
2021/06/26 06:14:41;;;;;;;15.55;5.40;;;19.20;82.30;;;;;;4999298;28;20551;-60
2021/06/26 06:17:06;;;;;;;8.18;5.15;;;19.20;81.80;;;;;;4982641;28;20045;-60
2021/06/26 06:19:32;;;;;;;8.57;5.22;;;19.20;82.10;;;;;;4982955;28;20486;-61
2021/06/26 06:21:57;;;;;;;15.50;5.20;;;19.20;82.00;;;;;;5004193;28;20042;-60
2021/06/26 06:24:23;;;;;;;10.35;5.28;;;19.20;82.30;;;;;;4999516;28;20045;-60
2021/06/26 06:26:48;;;;;;;8.73;5.00;;;19.20;82.20;;;;;;5000042;28;20105;-58
2021/06/26 06:29:14;;;;;;;8.52;4.90;;;19.30;82.30;;;;;;4997659;28;20026;-59
2021/06/26 06:31:39;;;;;;;11.65;5.25;;;19.30;82.60;;;;;;4997141;28;20022;-60
2021/06/26 06:34:05;;;;;;;11.57;5.35;;;19.30;83.00;;;;;;5000215;28;20105;-60
2021/06/26 06:36:31;;;;;;;12.68;5.60;;;19.30;82.30;;;;;;5004175;28;20477;-60
2021/06/26 06:38:57;;;;;;;9.85;5.20;;;19.30;82.40;;;;;;5002725;28;20026;-60
2021/06/26 06:41:22;;;;;;;9.60;5.43;;;19.30;82.20;;;;;;4986079;28;20109;-61
2021/06/26 06:43:48;;;;;;;13.27;5.68;;;19.30;82.30;;;;;;5003003;28;20048;-60
2021/06/26 06:46:13;;;;;;;12.90;5.40;;;19.30;82.00;;;;;;5002957;28;20037;-60
2021/06/26 06:48:39;;;;;;;10.50;5.13;;;19.30;82.20;;;;;;5005387;28;20397;-60
2021/06/26 06:51:04;;;;;;;16.33;5.00;;;19.30;82.20;;;;;;5004612;28;20412;-60
2021/06/26 06:53:30;;;;;;;10.38;5.28;;;19.30;82.20;;;;;;4969975;28;20429;-61
2021/06/26 06:55:58;;;;;;;7.68;5.03;;;19.30;82.30;;;;;;5001348;28;20034;-60
2021/06/26 06:58:24;;;;;;;11.93;5.28;;;19.30;82.30;;;;;;5003308;28;20056;-61
2021/06/26 07:00:49;;;;;;;13.23;4.82;;;19.30;82.30;;;;;;5004242;28;20026;-60
2021/06/26 07:03:15;;;;;;;9.73;4.88;;;19.30;82.10;;;;;;4986882;28;20029;-59
2021/06/26 07:05:40;;;;;;;8.77;4.90;;;19.30;82.20;;;;;;4986946;28;20042;-60
2021/06/26 07:08:06;;;;;;;6.32;4.63;;;19.30;82.20;;;;;;4985785;28;20033;-60
2021/06/26 07:10:31;;;;;;;8.02;5.10;;;19.30;82.10;;;;;;5003539;28;20074;-61
2021/06/26 07:12:57;;;;;;;9.93;5.20;;;19.30;82.20;;;;;;4985646;28;20125;-59
2021/06/26 07:15:23;;;;;;;8.75;5.63;;;19.30;82.20;;;;;;4984950;28;20089;-60
2021/06/26 07:17:48;;;;;;;7.03;5.30;;;19.30;82.30;;;;;;4986091;28;20033;-60
2021/06/26 07:20:14;;;;;;;10.82;5.30;;;19.30;82.30;;;;;;5003121;28;20355;-60
2021/06/26 07:22:39;;;;;;;15.43;5.68;;;19.30;82.30;;;;;;5002522;28;20520;-59
2021/06/26 07:25:05;;;;;;;11.40;5.78;;;19.40;82.40;;;;;;5003864;28;20022;-61
2021/06/26 07:27:31;;;;;;;8.02;5.25;;;19.40;82.30;;;;;;4985366;28;20113;-59
2021/06/26 07:29:56;;;;;;;8.80;4.97;;;19.40;82.30;;;;;;5001595;28;20612;-59
2021/06/26 07:32:22;;;;;;;7.78;5.40;;;19.40;82.20;;;;;;5005017;28;20025;-60
2021/06/26 07:34:47;;;;;;;10.23;5.25;;;19.40;82.20;;;;;;4981790;28;20038;-59
2021/06/26 07:37:13;;;;;;;9.63;5.43;;;19.40;82.20;;;;;;4999685;28;21004;-60
2021/06/26 07:39:38;;;;;;;7.57;5.25;;;19.40;82.30;;;;;;5020530;28;20091;-60
2021/06/26 07:42:04;;;;;;;11.73;5.63;;;19.40;82.10;;;;;;5008181;28;20141;-60
2021/06/26 07:44:30;;;;;;;6.40;4.97;;;19.40;82.00;;;;;;4990431;28;20068;-60
2021/06/26 07:46:55;;;;;;;7.28;4.95;;;19.40;81.90;;;;;;4972960;28;20030;-59
2021/06/26 07:49:21;;;;;;;6.97;4.90;;;19.40;81.80;;;;;;5006911;28;20018;-60
2021/06/26 07:51:46;;;;;;;6.60;5.22;;;19.50;82.00;;;;;;5007827;28;20026;-59
2021/06/26 07:54:12;;;;;;;7.55;5.40;;;19.50;82.50;;;;;;5007228;28;20037;-60
2021/06/26 07:56:37;;;;;;;6.93;5.13;;;19.50;81.80;;;;;;4990144;28;20030;-59
2021/06/26 07:59:03;;;;;;;7.32;5.38;;;19.50;81.80;;;;;;5003268;28;20049;-60
2021/06/26 08:01:28;;;;;;;12.20;5.05;;;19.50;81.80;;;;;;5002780;28;20046;-59
2021/06/26 08:03:54;;;;;;;8.20;5.60;;;19.60;81.80;;;;;;5003249;28;20041;-60
2021/06/26 08:06:19;;;;;;;9.48;5.80;;;19.60;82.70;;;;;;5002253;28;20338;-59
2021/06/26 08:08:45;;;;;;;10.80;5.70;;;19.60;83.00;;;;;;5000232;28;20097;-60
2021/06/26 08:11:10;;;;;;;9.02;5.97;;;19.60;83.00;;;;;;5004138;28;20030;-60
2021/06/26 08:13:36;;;;;;;10.63;6.18;;;19.60;83.30;;;;;;4986769;28;20042;-59
2021/06/26 08:16:01;;;;;;;10.55;5.82;;;19.60;83.40;;;;;;5005444;28;20030;-60
2021/06/26 08:18:27;;;;;;;11.00;5.80;;;19.70;83.80;;;;;;5006135;28;20029;-60
2021/06/26 08:20:53;;;;;;;9.00;6.32;;;19.70;83.90;;;;;;5006106;28;20510;-59
2021/06/26 08:23:18;;;;;;;8.13;6.00;;;19.70;84.20;;;;;;5004629;28;20062;-60
2021/06/26 08:25:44;;;;;;;12.35;6.10;;;19.70;84.20;;;;;;4987950;28;21239;-60
2021/06/26 08:28:09;;;;;;;10.15;6.28;;;19.80;84.30;;;;;;5005106;28;20492;-59
2021/06/26 08:30:35;;;;;;;10.30;6.15;;;19.80;84.30;;;;;;5002555;28;20034;-60
2021/06/26 08:33:00;;;;;;;8.80;6.00;;;19.80;84.20;;;;;;5004227;28;20155;-60
2021/06/26 08:35:26;;;;;;;10.77;6.78;;;19.80;84.00;;;;;;5007714;28;20041;-60
2021/06/26 08:37:51;;;;;;;16.63;7.30;;;19.90;83.90;;;;;;5005254;28;21591;-58
2021/06/26 08:40:17;;;;;;;25.85;7.75;;;19.90;84.20;;;;;;5004889;28;20030;-60
2021/06/26 08:42:43;;;;;;;24.38;8.32;;;19.90;84.20;;;;;;4987804;28;20030;-59
2021/06/26 08:45:11;;;;;;;27.58;8.15;;;20.00;84.20;;;;;;4972710;28;20037;-63
2021/06/26 08:47:37;;;;;;;18.23;7.00;;;20.00;84.40;;;;;;5002038;28;20038;-59
2021/06/26 08:50:03;;;;;;;26.52;8.13;;;20.00;84.20;;;;;;5005402;28;20032;-60
2021/06/26 08:52:29;;;;;;;33.42;7.80;;;20.10;84.10;;;;;;5003398;28;20030;-59
2021/06/26 08:54:55;;;;;;;24.25;7.30;;;20.10;84.10;;;;;;4987259;28;20053;-60
2021/06/26 08:57:31;;;;;;;40.65;8.27;;;20.10;84.20;;;;;;5021623;28;20060;-60
2021/06/26 09:00:00;;;;;;;41.17;8.48;;;20.10;84.00;;;;;;4987273;28;20021;-60
2021/06/26 09:02:27;;;;;;;40.47;9.68;;;20.20;84.00;;;;;;5020094;28;20033;-60
2021/06/26 09:04:52;;;;;;;37.22;8.35;;;20.20;84.10;;;;;;5004094;28;20013;-59
2021/06/26 09:07:32;;;;;;;56.55;10.05;;;20.30;84.30;;;;;;5003349;28;20061;-60
2021/06/26 09:09:57;;;;;;;29.23;9.25;;;20.10;84.40;;;;;;4968760;28;20033;-59
2021/06/26 09:12:25;;;;;;;45.42;8.75;;;20.40;84.50;;;;;;5004052;28;20030;-60
2021/06/26 09:14:51;;;;;;;52.83;10.57;;;20.40;84.50;;;;;;4984721;28;20065;-59
2021/06/26 09:17:20;;;;;;;41.33;9.25;;;20.50;84.30;;;;;;5004942;28;20132;-60
2021/06/26 09:19:55;;;;;;;40.65;9.15;;;20.50;84.20;;;;;;5001841;28;20145;-60
2021/06/26 09:22:21;;;;;;;;;;;20.50;83.80;;;;;;4987344;28;20037;-60
2021/06/26 09:24:48;;;;;;;32.30;6.30;;;20.50;83.00;;;;;;4987188;28;20355;-60
2021/06/26 09:27:15;;;;;;;54.53;9.95;;;20.60;82.60;;;;;;4987007;28;20049;-59
2021/06/26 09:29:51;;;;;;;39.83;7.55;;;20.70;82.60;;;;;;5004132;28;20623;-59
2021/06/26 09:32:20;;;;;;;;;;;20.60;82.40;;;;;;4987474;28;20500;-59
2021/06/26 09:34:46;;;;;;;69.43;10.60;;;20.70;82.50;;;;;;5003386;28;19948;-59
2021/06/26 09:37:13;;;;;;;92.13;12.27;;;20.70;82.40;;;;;;5004593;28;20121;-60
2021/06/26 09:39:42;;;;;;;66.57;10.98;;;20.80;82.00;;;;;;5001038;28;20083;-60
2021/06/26 09:42:21;;;;;;;58.58;8.60;;;20.90;82.30;;;;;;4981567;28;20108;-60
2021/06/26 09:44:50;;;;;;;35.03;7.80;;;20.90;81.80;;;;;;5000124;28;20045;-59
2021/06/26 09:47:41;;;;;;;41.70;6.55;;;20.90;81.40;;;;;;4985880;28;20048;-60
2021/06/26 09:50:20;;;;;;;30.98;6.93;;;20.90;80.80;;;;;;4987678;28;20030;-60
2021/06/26 09:53:00;;;;;;;43.88;8.20;;;21.00;80.60;;;;;;4986097;28;20037;-59
2021/06/26 09:55:30;;;;;;;52.42;8.10;;;21.00;80.30;;;;;;4989195;28;20109;-60
2021/06/26 09:58:17;;;;;;;41.38;7.25;;;21.10;80.00;;;;;;4986756;28;20050;-60
2021/06/26 10:00:42;;;;;;;42.83;7.07;;;21.10;79.80;;;;;;4987813;28;20124;-60
2021/06/26 10:03:09;;;;;;;43.70;7.18;;;21.10;79.50;;;;;;5003044;28;20121;-60
2021/06/26 10:05:34;;;;;;;63.88;9.75;;;21.10;79.50;;;;;;4984352;28;20049;-60
2021/06/26 10:08:02;;;;;;;31.98;6.47;;;21.10;79.50;;;;;;5001537;28;20116;-60
2021/06/26 10:10:27;;;;;;;28.15;7.95;;;21.10;79.40;;;;;;5001085;28;20034;-60
2021/06/26 10:12:53;;;;;;;26.40;6.30;;;21.10;78.90;;;;;;5001779;28;20076;-60
2021/06/26 10:15:20;;;;;;;14.35;5.75;;;21.10;79.00;;;;;;5017387;28;20041;-59
2021/06/26 10:17:46;;;;;;;33.30;7.00;;;21.20;79.00;;;;;;5001655;28;20088;-59
2021/06/26 10:20:14;;;;;;;23.40;6.57;;;21.20;78.90;;;;;;4985896;28;20034;-60
2021/06/26 10:22:41;;;;;;;32.88;7.15;;;21.30;78.80;;;;;;4985851;28;20251;-60
2021/06/26 10:25:07;;;;;;;14.32;4.95;;;21.30;78.50;;;;;;4982514;28;20049;-59
2021/06/26 10:27:33;;;;;;;22.30;5.63;;;21.30;78.10;;;;;;4985714;28;20774;-60
2021/06/26 10:30:12;;;;;;;20.08;5.28;;;21.30;78.00;;;;;;4984639;28;20549;-59
2021/06/26 10:32:47;;;;;;;25.17;5.45;;;21.40;77.90;;;;;;4953304;28;20022;-60
2021/06/26 10:35:13;;;;;;;;;;;21.40;77.70;;;;;;4970949;28;20018;-60
2021/06/26 10:37:38;;;;;;;24.70;6.28;;;21.50;77.60;;;;;;5002395;28;20435;-60
2021/06/26 10:40:06;;;;;;;36.67;6.15;;;21.50;77.50;;;;;;5002276;28;20038;-60
2021/06/26 10:42:33;;;;;;;26.13;6.00;;;21.60;77.50;;;;;;4986097;28;20065;-61
2021/06/26 10:44:59;;;;;;;20.40;4.60;;;21.70;77.20;;;;;;5003752;28;20097;-59
2021/06/26 10:47:36;;;;;;;17.70;4.70;;;21.70;76.60;;;;;;5005384;28;20056;-60
2021/06/26 10:50:27;;;;;;;14.65;3.85;;;21.70;76.60;;;;;;4984101;28;20038;-60
2021/06/26 10:52:55;;;;;;;15.95;4.15;;;21.80;76.20;;;;;;4977736;28;20474;-59
2021/06/26 10:55:31;;;;;;;30.50;6.93;;;21.80;76.10;;;;;;4986463;28;20029;-59
2021/06/26 10:57:57;;;;;;;27.55;4.90;;;21.80;76.20;;;;;;5009194;28;20061;-60
2021/06/26 11:00:39;;;;;;;19.35;5.55;;;21.90;75.60;;;;;;4986001;28;20058;-59
2021/06/26 11:03:05;;;;;;;35.42;5.65;;;21.90;75.30;;;;;;5001451;28;20573;-60
2021/06/26 11:05:35;;;;;;;30.55;5.25;;;22.00;75.10;;;;;;4984978;28;20048;-60
2021/06/26 11:08:01;;;;;;;39.67;5.55;;;22.10;75.10;;;;;;4984782;28;20042;-60
2021/06/26 11:10:26;;;;;;;34.00;5.90;;;22.10;75.00;;;;;;4968832;28;20046;-60
2021/06/26 11:12:52;;;;;;;25.83;5.43;;;22.20;75.10;;;;;;5003803;28;20038;-60
2021/06/26 11:15:30;;;;;;;35.40;5.55;;;22.30;74.90;;;;;;5006438;28;20824;-60
2021/06/26 11:17:56;;;;;;;40.33;5.70;;;22.40;74.70;;;;;;5004441;28;20157;-59
2021/06/26 11:20:22;;;;;;;24.80;5.38;;;22.50;74.40;;;;;;5003638;28;20037;-60
2021/06/26 11:22:55;;;;;;;61.95;9.48;;;22.60;74.00;;;;;;4990166;28;20052;-60
2021/06/26 11:25:21;;;;;;;55.63;7.85;;;22.80;73.70;;;;;;4991732;28;20024;-59
2021/06/26 11:27:46;;;;;;;41.33;7.70;;;22.80;73.30;;;;;;4990484;28;20390;-60
2021/06/26 11:30:13;;;;;;;44.88;6.05;;;22.90;73.00;;;;;;4986049;28;20052;-60
2021/06/26 11:32:39;;;;;;;62.33;7.90;;;23.00;72.60;;;;;;4954964;28;20393;-60
2021/06/26 11:35:08;;;;;;;94.80;11.13;;;23.00;72.50;;;;;;5005478;28;20046;-60
2021/06/26 11:37:34;;;;;;;43.15;6.43;;;23.10;72.50;;;;;;5003604;28;20057;-59
2021/06/26 11:40:00;;;;;;;30.77;5.43;;;23.20;72.40;;;;;;4988716;28;20382;-59
2021/06/26 11:42:26;;;;;;;29.63;4.82;;;23.20;72.20;;;;;;4970967;28;20034;-61
2021/06/26 11:44:52;;;;;;;29.75;4.75;;;23.30;72.20;;;;;;5004199;28;20028;-60
2021/06/26 11:47:17;;;;;;;21.75;5.00;;;23.40;71.90;;;;;;5004809;28;20041;-61
2021/06/26 11:49:45;;;;;;;13.93;4.22;;;23.40;71.70;;;;;;5005688;28;20117;-61
2021/06/26 11:52:12;;;;;;;14.57;4.10;;;23.50;71.60;;;;;;4987784;28;20022;-60
2021/06/26 11:54:38;;;;;;;11.70;3.63;;;23.60;71.10;;;;;;5004424;28;20477;-60
2021/06/26 11:57:06;;;;;;;11.75;3.60;;;23.70;70.50;;;;;;5004398;28;20045;-60
2021/06/26 11:59:38;;;;;;;20.75;4.75;;;23.80;70.50;;;;;;5005608;28;20026;-60
2021/06/26 12:02:04;;;;;;;63.80;7.65;;;23.80;70.10;;;;;;4989457;28;20113;-60
2021/06/26 12:04:31;;;;;;;30.50;5.20;;;23.90;69.90;;;;;;5005504;28;20541;-60
2021/06/26 12:06:56;;;;;;;34.38;6.15;;;24.00;69.90;;;;;;5003966;28;20033;-60
2021/06/26 12:09:23;;;;;;;22.52;4.82;;;24.10;69.90;;;;;;5003821;28;20431;-61
2021/06/26 12:11:49;;;;;;;26.23;5.70;;;24.10;69.70;;;;;;4988226;28;20025;-60
2021/06/26 12:14:14;;;;;;;41.75;6.10;;;24.20;69.70;;;;;;5017495;28;20038;-60
2021/06/26 12:16:40;;;;;;;48.22;6.50;;;24.20;69.60;;;;;;4988648;28;20038;-60
2021/06/26 12:19:10;;;;;;;19.20;3.65;;;24.30;69.90;;;;;;5006406;28;20042;-60
2021/06/26 12:21:46;;;;;;;22.13;3.83;;;24.20;69.40;;;;;;4987584;28;20050;-61
2021/06/26 12:24:23;;;;;;;16.70;3.85;;;24.20;69.40;;;;;;4987316;28;20022;-60
2021/06/26 12:26:48;;;;;;;29.33;4.43;;;24.20;68.90;;;;;;5005117;28;20068;-60
2021/06/26 12:29:21;;;;;;;39.13;6.68;;;24.30;68.60;;;;;;5002962;28;20343;-60
2021/06/26 12:31:46;;;;;;;37.20;6.75;;;24.30;68.20;;;;;;5004038;28;20046;-60
2021/06/26 12:34:12;;;;;;;20.73;5.20;;;24.40;68.10;;;;;;5004255;28;20050;-60